MMTO

Licenciado Adolfo Lopez Mateos International Airport

Toluca, Mexico
TAF MMTO 221620Z 2218/2324 22006KT P6SM SKC TX23/2220Z TNM01/2312Z TEMPO 2220/2224 24012KT FM230400 00000KT P6SM SKC BECMG 2311/2312 4SM HZ FM231700 23008KT P6SM SCT220
Issued Valid From Valid To
Jan-22 @ 16:20 UTC
(2 hours ago)
Jan-22 @ 18:00 UTC
(in 9 minutes)
Jan-24 @ 00:00 UTC
(-1 days ago)
Jan-22 @ 18:00 to Jan-23 @ 04:00
TAF MMTO 221620Z 2218/2324 22006KT P6SM SKC TX23/2220Z TNM01/2312Z
Wind Visibility Clouds
220° at 6 knots Greater than 6 miles
  • Clear skies
Temporary Jan-22 @ 20:00 to Jan-23 @ 00:00
TEMPO 2220/2224 24012KT
Wind
240° at 12 knots
From Jan-23 @ 04:00 to Jan-23 @ 11:00
FM230400 00000KT P6SM SKC
Visibility Clouds
Greater than 6 miles
  • Clear skies
Becoming Jan-23 @ 11:00 to Jan-23 @ 17:00
BECMG 2311/2312 4SM HZ
Visibility Clouds Conditions
4 miles
  • Clear skies
  • Haze
From Jan-23 @ 17:00 to Jan-24 @ 00:00
FM231700 23008KT P6SM SCT220
Wind Visibility Clouds
230° at 8 knots Greater than 6 miles
  • Scattered at 22,000' AGL
TAF MMTO 221620Z 2218/2324 22006KT P6SM SKC TX23/2220Z TNM01/2312Z TEMPO 2220/2224 24012KT FM230400 00000KT P6SM SKC BECMG 2311/2312 4SM HZ FM231700 23008KT P6SM SCT220
Issued Jan-22 @ 16:20 UTC
(2 hours ago)
Valid From Jan-22 @ 18:00 UTC
(in 9 minutes)
Valid To Jan-24 @ 00:00 UTC
(-1 days ago)
Jan-22 @ 18:00 - Jan-23 @ 04:00
Wind Visibility
220° at 6 knots Greater than 6 miles
Clouds
  • Clear skies
Temporary Jan-22 @ 20:00 - Jan-23 @ 00:00
Wind
240° at 12 knots
From Jan-23 @ 04:00 - Jan-23 @ 11:00
Clouds
  • Clear skies
Becoming Jan-23 @ 11:00 - Jan-23 @ 17:00
Clouds
  • Clear skies
Conditions
  • Haze
From Jan-23 @ 17:00 - Jan-24 @ 00:00
Wind Visibility
230° at 8 knots Greater than 6 miles
Clouds
  • Scattered at 22,000' AGL